Sct Santiago — V7NF7 — position and weather

sailwx.info

Track history (hours):
 
Tides and Currents Weather Stations Pressure Air Temp Water Temp Dewpoint Dewpoint Depression Visibility Wind Speed Wind Dir Waves Ship Positions

Sct Santiago

Last reported at 2014-Dec-20 12:11 UTC. Time now 2014-Dec-22 09:12 UTC.
Position N 40°25' E 026°44'.

Length 294 m; draft 11.3 m.

Type: Cargo ship. MMSI: 538002953.

Date/timePositionNaut miles runAvg speedWind from/ knotsBaromVisibWave heightAir tempDewpointWater temp
2014-Dec-20 12:11N 40°25' E 026°44'5113.0
2014-Dec-20 08:14N 39°52' E 025°52'1113.6
2014-Dec-20 07:26N 39°43' E 025°45'12818.6
2014-Dec-20 00:34N 37°47' E 024°33'1918.7
2014-Dec-19 23:34N 37°31' E 024°22'2019.3
2014-Dec-19 22:30N 37°16' E 024°05'1819.0
2014-Dec-19 21:34N 37°02' E 023°51'45818.3
2014-Dec-18 20:34N 36°32' E 014°19'1919.0
2014-Dec-18 19:34N 36°37' E 013°57'2119.7
2014-Dec-18 18:30N 36°42' E 013°31'90519.3
2014-Dec-16 19:30N 35°60' W 005°11'21215.2
2014-Dec-16 05:34N 37°32' W 009°11'2019.4
2014-Dec-16 04:33N 37°48' W 008°56'9 9.2
2014-Dec-16 03:32N 37°56' W 008°51'0 0.0
2014-Dec-16 01:04N 37°56' W 008°51'0 0.0
2014-Dec-16 00:07N 37°56' W 008°51'0 0.0
2014-Dec-15 23:16N 37°56' W 008°51'0 0.0
2014-Dec-15 22:31N 37°56' W 008°51'0 0.0
2014-Dec-15 21:31N 37°56' W 008°51'0 0.0
2014-Dec-15 20:31N 37°56' W 008°51'0 0.0
2014-Dec-15 19:31N 37°56' W 008°51'0 0.0
2014-Dec-15 18:31N 37°56' W 008°51'0 0.0
2014-Dec-15 17:31N 37°56' W 008°51'0 0.0
2014-Dec-15 16:31N 37°56' W 008°51'0 0.0
2014-Dec-15 15:31N 37°56' W 008°51'0 0.0
2014-Dec-15 14:31N 37°56' W 008°51'0 0.0
2014-Dec-15 13:31N 37°56' W 008°51'1 1.0
2014-Dec-15 12:33N 37°55' W 008°50'1010.5
2014-Dec-15 11:33N 37°57' W 009°03'2020.2
2014-Dec-15 10:33N 38°03' W 009°28'1918.8
2014-Dec-15 09:33N 38°14' W 009°47'2120.5
2014-Dec-15 08:31N 38°32' W 010°01'4019.7
2014-Dec-15 06:29N 39°12' W 010°07'79518.9
2014-Dec-13 12:23N 50°26' W 000°13'1919.6
2014-Dec-13 11:25N 50°31' E 000°16'1720.1
2014-Dec-13 10:33N 50°38' E 000°41'2020.4
2014-Dec-13 09:33N 50°49' E 001°08'2020.1
2014-Dec-13 08:33N 51°03' E 001°31'1919.0
2014-Dec-13 07:33N 51°17' E 001°51'1414.3
2014-Dec-13 06:33N 51°22' E 002°13'1716.8
2014-Dec-13 05:33N 51°23' E 002°40'1313.5
2014-Dec-13 04:33N 51°25' E 003°01'1616.0
2014-Dec-13 03:33N 51°25' E 003°27'9 9.1
2014-Dec-13 02:34N 51°26' E 003°41'1010.1
2014-Dec-13 01:33N 51°23' E 003°56'9 8.6
2014-Dec-13 00:34N 51°23' E 004°10'5 5.2
2014-Dec-12 23:34N 51°21' E 004°17'1 1.2
2014-Dec-12 22:33N 51°20' E 004°18'1 1.1
2014-Dec-12 21:33N 51°20' E 004°20'0 0.0
2014-Dec-12 20:31N 51°20' E 004°20'0 0.0
2014-Dec-12 19:31N 51°20' E 004°20'0 0.0
2014-Dec-12 18:31N 51°20' E 004°20'0 0.0
2014-Dec-12 17:31N 51°20' E 004°20'0 0.0
2014-Dec-12 16:31N 51°20' E 004°20'0 0.0
2014-Dec-12 15:34N 51°20' E 004°20'0 0.0
2014-Dec-12 14:24N 51°20' E 004°20'0 0.0
2014-Dec-12 13:30N 51°20' E 004°20'0 0.0
2014-Dec-12 12:33N 51°20' E 004°20'0 0.0
2014-Dec-12 11:33N 51°20' E 004°20'0 0.0
2014-Dec-12 10:30N 51°20' E 004°20'0 0.0
2014-Dec-12 09:30N 51°20' E 004°20'0 0.0
2014-Dec-12 08:33N 51°20' E 004°20'0 0.0
2014-Dec-12 07:21N 51°20' E 004°20'0 0.0
2014-Dec-12 06:33N 51°20' E 004°20'0 0.0
2014-Dec-12 05:33N 51°20' E 004°20'0 0.0
2014-Dec-12 04:33N 51°20' E 004°20'0 0.0
2014-Dec-12 03:33N 51°20' E 004°20'0 0.0
2014-Dec-12 02:33N 51°20' E 004°20'0 0.0
2014-Dec-12 01:33N 51°20' E 004°20'0 0.0
2014-Dec-12 00:33N 51°20' E 004°20'0 0.0
2014-Dec-11 23:33N 51°20' E 004°20'2 2.1
2014-Dec-11 22:34N 51°21' E 004°17'0 0.3
2014-Dec-11 21:33N 51°21' E 004°17'5 5.3
2014-Dec-11 20:33N 51°22' E 004°09'7 7.3
2014-Dec-11 19:33N 51°23' E 003°57'10 9.6
2014-Dec-11 18:34N 51°25' E 003°42'1212.3
2014-Dec-11 17:33N 51°24' E 003°22'1615.8
2014-Dec-11 16:33N 51°23' E 002°57'9 8.6
2014-Dec-11 15:33N 51°27' E 002°45'1514.9
2014-Dec-11 14:33N 51°37' E 003°02'9 9.0
2014-Dec-11 13:33N 51°44' E 003°10'2 2.1
2014-Dec-11 12:32N 51°46' E 003°07'6811.3
2014-Dec-11 06:33N 52°49' E 003°45'2115.4
2014-Dec-11 05:10N 53°04' E 004°11'1015.8
2014-Dec-11 04:32N 53°10' E 004°23'1615.9
2014-Dec-11 03:33N 53°24' E 004°35'1413.5
2014-Dec-11 02:32N 53°32' E 004°54'1514.9
2014-Dec-11 01:33N 53°37' E 005°17'1514.6
2014-Dec-11 00:33N 53°41' E 005°41'1414.4
2014-Dec-10 23:33N 53°46' E 006°03'5814.5
2014-Dec-10 19:33N 53°59' E 007°39'1515.5
2014-Dec-10 18:33N 53°51' E 008°02'1716.9
2014-Dec-10 17:33N 53°40' E 008°23'8 7.6
2014-Dec-10 16:33N 53°34' E 008°32'0 0.0
2014-Dec-10 15:31N 53°34' E 008°32'0 0.0
2014-Dec-10 14:31N 53°34' E 008°32'0 0.0
2014-Dec-10 13:31N 53°34' E 008°32'0 0.0
2014-Dec-10 12:31N 53°34' E 008°32'  
Track history (hours):
 
Tides and Currents Weather Stations Pressure Air Temp Water Temp Dewpoint Dewpoint Depression Visibility Wind Speed Wind Dir Waves Ship Positions

Sct Santiago

Last reported at 2014-Dec-20 12:11 UTC. Time now 2014-Dec-22 09:12 UTC.
Position N 40°25' E 026°44'.

Length 294 m; draft 11.3 m.

Type: Cargo ship. MMSI: 538002953.

Date/timePositionNaut miles runAvg speedWind from/ knotsBaromVisibWave heightAir tempDewpointWater temp
2014-Dec-20 12:11N 40°25' E 026°44'5113.0
2014-Dec-20 08:14N 39°52' E 025°52'1113.6
2014-Dec-20 07:26N 39°43' E 025°45'12818.6
2014-Dec-20 00:34N 37°47' E 024°33'1918.7
2014-Dec-19 23:34N 37°31' E 024°22'2019.3
2014-Dec-19 22:30N 37°16' E 024°05'1819.0
2014-Dec-19 21:34N 37°02' E 023°51'45818.3
2014-Dec-18 20:34N 36°32' E 014°19'1919.0
2014-Dec-18 19:34N 36°37' E 013°57'2119.7
2014-Dec-18 18:30N 36°42' E 013°31'90519.3
2014-Dec-16 19:30N 35°60' W 005°11'21215.2
2014-Dec-16 05:34N 37°32' W 009°11'2019.4
2014-Dec-16 04:33N 37°48' W 008°56'9 9.2
2014-Dec-16 03:32N 37°56' W 008°51'0 0.0
2014-Dec-16 01:04N 37°56' W 008°51'0 0.0
2014-Dec-16 00:07N 37°56' W 008°51'0 0.0
2014-Dec-15 23:16N 37°56' W 008°51'0 0.0
2014-Dec-15 22:31N 37°56' W 008°51'0 0.0
2014-Dec-15 21:31N 37°56' W 008°51'0 0.0
2014-Dec-15 20:31N 37°56' W 008°51'0 0.0
2014-Dec-15 19:31N 37°56' W 008°51'0 0.0
2014-Dec-15 18:31N 37°56' W 008°51'0 0.0
2014-Dec-15 17:31N 37°56' W 008°51'0 0.0
2014-Dec-15 16:31N 37°56' W 008°51'0 0.0
2014-Dec-15 15:31N 37°56' W 008°51'0 0.0
2014-Dec-15 14:31N 37°56' W 008°51'0 0.0
2014-Dec-15 13:31N 37°56' W 008°51'1 1.0
2014-Dec-15 12:33N 37°55' W 008°50'1010.5
2014-Dec-15 11:33N 37°57' W 009°03'2020.2
2014-Dec-15 10:33N 38°03' W 009°28'1918.8
2014-Dec-15 09:33N 38°14' W 009°47'2120.5
2014-Dec-15 08:31N 38°32' W 010°01'4019.7
2014-Dec-15 06:29N 39°12' W 010°07'79518.9
2014-Dec-13 12:23N 50°26' W 000°13'1919.6
2014-Dec-13 11:25N 50°31' E 000°16'1720.1
2014-Dec-13 10:33N 50°38' E 000°41'2020.4
2014-Dec-13 09:33N 50°49' E 001°08'2020.1
2014-Dec-13 08:33N 51°03' E 001°31'1919.0
2014-Dec-13 07:33N 51°17' E 001°51'1414.3
2014-Dec-13 06:33N 51°22' E 002°13'1716.8
2014-Dec-13 05:33N 51°23' E 002°40'1313.5
2014-Dec-13 04:33N 51°25' E 003°01'1616.0
2014-Dec-13 03:33N 51°25' E 003°27'9 9.1
2014-Dec-13 02:34N 51°26' E 003°41'1010.1
2014-Dec-13 01:33N 51°23' E 003°56'9 8.6
2014-Dec-13 00:34N 51°23' E 004°10'5 5.2
2014-Dec-12 23:34N 51°21' E 004°17'1 1.2
2014-Dec-12 22:33N 51°20' E 004°18'1 1.1
2014-Dec-12 21:33N 51°20' E 004°20'0 0.0
2014-Dec-12 20:31N 51°20' E 004°20'0 0.0
2014-Dec-12 19:31N 51°20' E 004°20'0 0.0
2014-Dec-12 18:31N 51°20' E 004°20'0 0.0
2014-Dec-12 17:31N 51°20' E 004°20'0 0.0
2014-Dec-12 16:31N 51°20' E 004°20'0 0.0
2014-Dec-12 15:34N 51°20' E 004°20'0 0.0
2014-Dec-12 14:24N 51°20' E 004°20'0 0.0
2014-Dec-12 13:30N 51°20' E 004°20'0 0.0
2014-Dec-12 12:33N 51°20' E 004°20'0 0.0
2014-Dec-12 11:33N 51°20' E 004°20'0 0.0
2014-Dec-12 10:30N 51°20' E 004°20'0 0.0
2014-Dec-12 09:30N 51°20' E 004°20'0 0.0
2014-Dec-12 08:33N 51°20' E 004°20'0 0.0
2014-Dec-12 07:21N 51°20' E 004°20'0 0.0
2014-Dec-12 06:33N 51°20' E 004°20'0 0.0
2014-Dec-12 05:33N 51°20' E 004°20'0 0.0
2014-Dec-12 04:33N 51°20' E 004°20'0 0.0
2014-Dec-12 03:33N 51°20' E 004°20'0 0.0
2014-Dec-12 02:33N 51°20' E 004°20'0 0.0
2014-Dec-12 01:33N 51°20' E 004°20'0 0.0
2014-Dec-12 00:33N 51°20' E 004°20'0 0.0
2014-Dec-11 23:33N 51°20' E 004°20'2 2.1
2014-Dec-11 22:34N 51°21' E 004°17'0 0.3
2014-Dec-11 21:33N 51°21' E 004°17'5 5.3
2014-Dec-11 20:33N 51°22' E 004°09'7 7.3
2014-Dec-11 19:33N 51°23' E 003°57'10 9.6
2014-Dec-11 18:34N 51°25' E 003°42'1212.3
2014-Dec-11 17:33N 51°24' E 003°22'1615.8
2014-Dec-11 16:33N 51°23' E 002°57'9 8.6
2014-Dec-11 15:33N 51°27' E 002°45'1514.9
2014-Dec-11 14:33N 51°37' E 003°02'9 9.0
2014-Dec-11 13:33N 51°44' E 003°10'2 2.1
2014-Dec-11 12:32N 51°46' E 003°07'6811.3
2014-Dec-11 06:33N 52°49' E 003°45'2115.4
2014-Dec-11 05:10N 53°04' E 004°11'1015.8
2014-Dec-11 04:32N 53°10' E 004°23'1615.9
2014-Dec-11 03:33N 53°24' E 004°35'1413.5
2014-Dec-11 02:32N 53°32' E 004°54'1514.9
2014-Dec-11 01:33N 53°37' E 005°17'1514.6
2014-Dec-11 00:33N 53°41' E 005°41'1414.4
2014-Dec-10 23:33N 53°46' E 006°03'5814.5
2014-Dec-10 19:33N 53°59' E 007°39'1515.5
2014-Dec-10 18:33N 53°51' E 008°02'1716.9
2014-Dec-10 17:33N 53°40' E 008°23'8 7.6
2014-Dec-10 16:33N 53°34' E 008°32'0 0.0
2014-Dec-10 15:31N 53°34' E 008°32'0 0.0
2014-Dec-10 14:31N 53°34' E 008°32'0 0.0
2014-Dec-10 13:31N 53°34' E 008°32'0 0.0
2014-Dec-10 12:31N 53°34' E 008°32'  

Dump ship's entire track history